Time;durP1;ratioP1;P1;durP2;ratioP2;P2;SDS_P1;SDS_P2;PMS_P1;PMS_P2;Temp;Humidity;BMP_temperature;BMP_pressure;BME280_temperature;BME280_humidity;BME280_pressure;Samples;Min_cycle;Max_cycle;Signal;HPM_P1;HPM_P2
2022/10/02 00:01:49;;;;;;;3.52;1.60;;;;;;;11.52;92.85;100014.48;1745351;82;20963;-80
2022/10/02 00:04:22;;;;;;;4.45;1.60;;;;;;;11.53;92.96;100021.92;1732908;82;21009;-81
2022/10/02 00:06:53;;;;;;;2.08;1.50;;;;;;;11.54;92.95;100023.62;1738317;82;22790;-77
2022/10/02 00:09:29;;;;;;;4.50;2.00;;;;;;;11.55;93.03;100032.72;1745753;82;21463;-82
2022/10/02 00:11:59;;;;;;;3.65;1.50;;;;;;;11.55;93.01;100033.19;1745509;82;20998;-78
2022/10/02 00:14:30;;;;;;;3.25;1.35;;;;;;;11.56;93.01;100040.16;1745910;82;20949;-71
2022/10/02 00:17:00;;;;;;;3.05;1.85;;;;;;;11.56;93.04;100046.72;1745416;82;21025;-79
2022/10/02 00:19:27;;;;;;;4.58;1.72;;;;;;;11.57;93.06;100043.16;1746314;82;21122;-79
2022/10/02 00:22:02;;;;;;;3.20;1.50;;;;;;;11.57;93.09;100044.00;1745747;82;20991;-72
2022/10/02 00:24:40;;;;;;;5.87;1.80;;;;;;;11.59;93.16;100055.75;1745306;82;21033;-76
2022/10/02 00:27:33;;;;;;;4.42;1.85;;;;;;;11.60;93.15;100056.98;1734462;82;20969;-80
2022/10/02 00:30:02;;;;;;;2.83;1.50;;;;;;;11.62;93.19;100050.36;1745530;82;21645;-74
2022/10/02 00:32:52;;;;;;;3.45;1.70;;;;;;;11.64;93.13;100068.21;1746033;82;21317;-77
2022/10/02 00:35:39;;;;;;;4.73;1.37;;;;;;;11.64;93.19;100065.59;1727198;82;21017;-79
2022/10/02 00:38:34;;;;;;;4.60;1.80;;;;;;;11.64;93.15;100062.96;1746124;82;21012;-78
2022/10/02 00:41:12;;;;;;;3.20;1.50;;;;;;;11.66;93.11;100068.13;1720230;83;21039;-74
2022/10/02 00:43:48;;;;;;;3.75;1.60;;;;;;;11.67;93.13;100075.09;1705102;83;21117;-75
2022/10/02 00:46:43;;;;;;;2.62;1.90;;;;;;;11.67;93.08;100079.03;1720327;83;21329;-79
2022/10/02 00:49:45;;;;;;;4.67;1.30;;;;;;;11.66;93.00;100086.03;1720460;83;21011;-78
2022/10/02 00:52:30;;;;;;;3.08;1.37;;;;;;;11.65;92.93;100076.94;1699797;84;21032;-79
2022/10/02 00:55:28;;;;;;;3.25;1.32;;;;;;;11.64;92.96;100087.02;1701514;84;21036;-75
2022/10/02 00:58:23;;;;;;;3.17;1.57;;;;;;;11.61;92.87;100095.45;1713333;83;21594;-77
2022/10/02 01:01:04;;;;;;;5.55;1.47;;;;;;;11.59;92.88;100098.60;1713284;83;22069;-79
2022/10/02 01:03:43;;;;;;;3.60;1.25;;;;;;;11.60;92.99;100109.95;1712143;83;21032;-79
2022/10/02 01:06:10;;;;;;;5.58;1.80;;;;;;;11.59;92.93;100109.57;1714239;83;21503;-74
2022/10/02 01:08:39;;;;;;;3.65;1.42;;;;;;;11.58;92.87;100110.47;1716895;83;21064;-74
2022/10/02 01:11:07;;;;;;;9.15;2.58;;;;;;;11.57;92.90;100109.62;1716864;83;21084;-76
2022/10/02 01:13:34;;;;;;;2.35;1.20;;;;;;;11.57;92.90;100105.69;1695324;83;21928;-76
2022/10/02 01:16:02;;;;;;;3.95;1.60;;;;;;;11.58;92.95;100110.03;1705644;83;21482;-78
2022/10/02 01:18:30;;;;;;;4.37;1.50;;;;;;;11.58;92.94;100115.72;1706384;83;21067;-82
2022/10/02 01:21:14;;;;;;;2.92;1.75;;;;;;;11.57;92.92;100116.19;1696044;84;21033;-75
2022/10/02 01:23:58;;;;;;;5.17;1.45;;;;;;;11.58;92.91;100119.66;1707602;82;21545;-78
2022/10/02 01:26:25;;;;;;;2.72;1.07;;;;;;;11.60;92.91;100128.33;1745541;82;21107;-80
2022/10/02 01:28:53;;;;;;;7.87;1.57;;;;;;;11.58;92.90;100136.28;1745935;82;20970;-76
2022/10/02 01:31:20;;;;;;;4.35;1.95;;;;;;;11.57;92.86;100140.28;1746192;82;21072;-79
2022/10/02 01:33:48;;;;;;;4.15;1.10;;;;;;;11.57;92.86;100150.31;1746057;82;20978;-79
2022/10/02 01:36:16;;;;;;;4.30;1.30;;;;;;;11.56;92.95;100146.46;1746267;81;21064;-78
2022/10/02 01:38:45;;;;;;;4.85;1.57;;;;;;;11.56;92.87;100153.87;1745926;82;21248;-79
2022/10/02 01:41:13;;;;;;;4.58;1.20;;;;;;;11.55;92.81;100148.67;1746309;82;20977;-74
2022/10/02 01:43:58;;;;;;;5.30;1.52;;;;;;;11.55;92.82;100152.61;1745940;82;21407;-80
2022/10/02 01:46:53;;;;;;;6.67;1.35;;;;;;;11.55;92.81;100155.23;1746189;82;21009;-73
2022/10/02 01:49:40;;;;;;;4.00;1.30;;;;;;;11.53;92.81;100155.33;1745952;82;20986;-79
2022/10/02 01:52:21;;;;;;;6.70;1.60;;;;;;;11.52;92.78;100159.31;1746310;82;21142;-75
2022/10/02 01:55:28;;;;;;;6.00;1.60;;;;;;;11.51;92.69;100156.31;1745863;82;21021;-76
2022/10/02 01:58:28;;;;;;;4.05;1.70;;;;;;;11.50;92.68;100162.45;1745156;82;21554;-77
2022/10/02 02:01:22;;;;;;;5.28;1.65;;;;;;;11.49;92.75;100162.08;1746163;82;21010;-74
2022/10/02 02:04:24;;;;;;;7.78;2.00;;;;;;;11.49;92.72;100168.64;1739079;82;21005;-82
2022/10/02 02:07:12;;;;;;;5.65;1.60;;;;;;;11.48;92.72;100173.05;1739821;82;21491;-79
2022/10/02 02:10:12;;;;;;;3.37;1.70;;;;;;;11.49;92.79;100173.42;1745682;82;21033;-76
2022/10/02 02:13:02;;;;;;;3.45;1.62;;;;;;;11.50;92.72;100179.52;1745325;82;21061;-75
2022/10/02 02:15:40;;;;;;;4.83;1.70;;;;;;;11.50;92.74;100184.77;1745585;82;21085;-80
2022/10/02 02:18:34;;;;;;;3.50;1.45;;;;;;;11.50;92.70;100188.27;1745983;82;21013;-80
2022/10/02 02:21:08;;;;;;;4.00;1.47;;;;;;;11.51;92.70;100195.68;1746095;82;21913;-80
2022/10/02 02:23:38;;;;;;;4.22;1.27;;;;;;;11.52;92.61;100192.13;1745934;82;21003;-75
2022/10/02 02:26:11;;;;;;;4.72;1.40;;;;;;;11.51;92.58;100195.68;1745899;82;21518;-79
2022/10/02 02:28:43;;;;;;;8.03;1.67;;;;;;;11.52;92.52;100205.25;1745972;82;21491;-80
2022/10/02 02:31:14;;;;;;;3.75;1.45;;;;;;;11.52;92.43;100202.16;1745843;82;20974;-75
2022/10/02 02:33:46;;;;;;;4.17;1.55;;;;;;;11.51;92.32;100208.80;1745995;82;21125;-77
2022/10/02 02:36:17;;;;;;;5.95;1.67;;;;;;;11.48;92.07;100201.06;1745841;82;20907;-73
2022/10/02 02:38:54;;;;;;;4.40;1.50;;;;;;;11.43;91.94;100203.03;1745438;82;20982;-79
2022/10/02 02:41:29;;;;;;;7.17;1.40;;;;;;;11.35;91.79;100209.45;1719182;82;21030;-76
2022/10/02 02:44:04;;;;;;;5.62;1.67;;;;;;;11.29;91.81;100211.04;1721503;82;21063;-81
2022/10/02 02:47:02;;;;;;;3.98;1.45;;;;;;;11.25;91.90;100213.84;1730284;82;21093;-76
2022/10/02 02:49:10;;;;;;;5.30;1.60;;;;;;;11.23;92.04;100214.40;1726645;82;21025;-78
2022/10/02 02:51:42;;;;;;;6.25;1.72;;;;;;;11.21;92.15;100207.05;1741155;82;21009;-79
2022/10/02 02:54:29;;;;;;;3.85;1.27;;;;;;;11.20;92.25;100212.76;1745936;82;21009;-76
2022/10/02 02:56:59;;;;;;;4.42;1.67;;;;;;;11.20;92.24;100218.47;1738603;82;21081;-78
2022/10/02 02:59:30;;;;;;;5.87;1.60;;;;;;;11.20;92.31;100219.78;1732238;82;21203;-78
2022/10/02 03:01:57;;;;;;;9.33;1.70;;;;;;;11.20;92.29;100218.00;1745716;82;21578;-78
2022/10/02 03:04:24;;;;;;;3.50;1.30;;;;;;;11.21;92.29;100213.14;1745914;82;20994;-80
2022/10/02 03:06:56;;;;;;;6.05;1.95;;;;;;;11.21;92.28;100223.63;1746020;82;21006;-74
2022/10/02 03:09:25;;;;;;;5.55;1.62;;;;;;;11.18;92.16;100225.54;1745876;82;21471;-79
2022/10/02 03:12:21;;;;;;;4.58;1.50;;;;;;;11.16;92.12;100228.22;1745835;82;21285;-76
2022/10/02 03:15:12;;;;;;;6.95;1.70;;;;;;;11.13;92.15;100230.50;1728916;82;20977;-72
2022/10/02 03:17:57;;;;;;;7.10;1.80;;;;;;;11.12;92.25;100227.50;1725431;82;21510;-77
2022/10/02 03:20:29;;;;;;;6.55;1.70;;;;;;;11.14;92.40;100233.97;1745916;82;21462;-79
2022/10/02 03:23:14;;;;;;;6.40;1.67;;;;;;;11.15;92.42;100227.83;1745717;82;21584;-73
2022/10/02 03:25:55;;;;;;;11.10;2.02;;;;;;;11.16;92.49;100233.00;1745952;82;22104;-76
2022/10/02 03:28:30;;;;;;;7.37;1.50;;;;;;;11.18;92.42;100230.78;1746124;81;21042;-80
2022/10/02 03:30:58;;;;;;;5.35;1.67;;;;;;;11.18;92.38;100239.97;1745757;82;21041;-78
2022/10/02 03:33:29;;;;;;;6.58;1.55;;;;;;;11.19;92.42;100245.59;1745959;82;21076;-76
2022/10/02 03:35:56;;;;;;;7.03;1.65;;;;;;;11.19;92.41;100241.20;1745917;82;21029;-72
2022/10/02 03:38:25;;;;;;;6.20;1.27;;;;;;;11.21;92.35;100239.84;1745991;82;21097;-73
2022/10/02 03:40:57;;;;;;;6.03;1.42;;;;;;;11.21;92.33;100244.62;1745774;82;21427;-73
2022/10/02 03:43:27;;;;;;;7.45;1.82;;;;;;;11.21;92.24;100248.55;1745954;82;21025;-79
2022/10/02 03:45:54;;;;;;;7.03;1.30;;;;;;;11.22;92.28;100239.75;1746161;82;21449;-74
2022/10/02 03:48:22;;;;;;;5.45;1.32;;;;;;;11.22;92.24;100242.84;1737365;82;21076;-74
2022/10/02 03:50:53;;;;;;;9.15;1.82;;;;;;;11.22;92.14;100237.59;1734320;82;21114;-73
2022/10/02 03:53:23;;;;;;;3.55;0.93;;;;;;;11.20;92.06;100238.14;1744800;82;21033;-73
2022/10/02 03:55:58;;;;;;;9.43;1.80;;;;;;;11.18;92.01;100239.97;1745847;82;20986;-80
2022/10/02 03:58:26;;;;;;;10.63;1.35;;;;;;;11.15;91.94;100248.35;1745976;82;21017;-73
2022/10/02 04:01:20;;;;;;;6.33;1.02;;;;;;;11.12;91.91;100251.57;1745955;82;21527;-79
2022/10/02 04:03:58;;;;;;;5.83;1.27;;;;;;;11.11;91.96;100253.78;1746219;82;21927;-76
2022/10/02 04:06:49;;;;;;;5.37;1.25;;;;;;;11.09;92.00;100260.88;1745339;82;21001;-75
2022/10/02 04:09:27;;;;;;;6.20;1.30;;;;;;;11.10;92.05;100270.45;1746069;82;21017;-73
2022/10/02 04:11:59;;;;;;;7.05;1.25;;;;;;;11.11;92.20;100268.20;1746029;81;21080;-79
2022/10/02 04:14:34;;;;;;;11.70;1.60;;;;;;;11.12;92.10;100262.06;1745830;82;20986;-75
2022/10/02 04:17:16;;;;;;;7.12;2.08;;;;;;;11.13;92.20;100276.41;1745775;82;21144;-80
2022/10/02 04:19:54;;;;;;;4.08;1.05;;;;;;;11.13;92.03;100279.50;1745069;82;20997;-77
2022/10/02 04:22:50;;;;;;;7.92;1.17;;;;;;;11.14;91.97;100283.81;1745724;82;20993;-78
2022/10/02 04:25:23;;;;;;;5.42;1.27;;;;;;;11.13;92.00;100292.61;1745819;82;21010;-82
2022/10/02 04:27:56;;;;;;;5.35;1.70;;;;;;;11.12;92.02;100286.52;1745983;82;21025;-72
2022/10/02 04:30:23;;;;;;;4.12;1.10;;;;;;;11.12;91.93;100284.36;1746024;81;21094;-76
2022/10/02 04:32:51;;;;;;;5.97;1.57;;;;;;;11.11;91.88;100290.50;1745877;82;20966;-80
2022/10/02 04:35:57;;;;;;;9.55;1.42;;;;;;;11.08;91.72;100287.55;1746100;82;21005;-79
2022/10/02 04:38:53;;;;;;;4.72;1.57;;;;;;;11.05;91.62;100292.92;1662260;85;21047;-76
2022/10/02 04:41:50;;;;;;;5.33;1.30;;;;;;;11.01;91.65;100295.28;1662617;86;21036;-75
2022/10/02 04:44:51;;;;;;;7.90;1.40;;;;;;;10.97;91.65;100298.08;1708119;82;21138;-73
2022/10/02 04:47:36;;;;;;;5.63;1.30;;;;;;;10.94;91.75;100301.68;1746293;82;21027;-75
2022/10/02 04:50:11;;;;;;;7.25;1.52;;;;;;;10.91;91.83;100293.94;1725074;82;21017;-82
2022/10/02 04:52:51;;;;;;;8.58;1.40;;;;;;;10.88;91.80;100292.29;1745928;82;21057;-81
2022/10/02 04:55:44;;;;;;;9.95;1.75;;;;;;;10.87;91.87;100297.15;1745552;81;20986;-81
2022/10/02 04:58:31;;;;;;;6.63;1.53;;;;;;;10.84;91.84;100298.59;1745361;82;21284;-82
2022/10/02 05:01:28;;;;;;;4.95;1.20;;;;;;;10.82;91.88;100298.25;1745478;82;20990;-76
2022/10/02 05:04:27;;;;;;;6.08;1.42;;;;;;;10.79;91.82;100305.78;1723825;82;20968;-84
2022/10/02 05:07:25;;;;;;;4.67;1.52;;;;;;;10.78;91.93;100315.88;1718296;82;21094;-80
2022/10/02 05:10:21;;;;;;;5.47;1.23;;;;;;;10.79;92.07;100314.11;1727469;81;21297;-75
2022/10/02 05:13:11;;;;;;;5.45;1.07;;;;;;;10.79;92.06;100314.11;1736956;81;21827;-78
2022/10/02 05:16:15;;;;;;;5.53;1.20;;;;;;;10.79;92.21;100307.55;1736011;81;21019;-73
2022/10/02 05:19:38;;;;;;;6.58;1.70;;;;;;;10.80;92.12;100310.09;1740074;81;20995;-87
2022/10/02 05:22:32;;;;;;;5.85;1.40;;;;;;;10.82;92.24;100308.73;1735223;81;21553;-83
2022/10/02 05:25:07;;;;;;;9.58;1.57;;;;;;;10.85;92.17;100309.92;1736682;81;21019;-86
2022/10/02 05:28:12;;;;;;;7.00;1.27;;;;;;;10.86;92.18;100315.13;1734515;81;21851;-84
2022/10/02 05:30:47;;;;;;;7.33;1.50;;;;;;;10.87;92.15;100317.28;1737770;81;20955;-84
2022/10/02 05:33:31;;;;;;;5.90;1.70;;;;;;;10.89;92.23;100318.05;1739517;81;21019;-82
2022/10/02 05:36:21;;;;;;;5.62;1.60;;;;;;;10.92;92.24;100317.95;1733449;81;21086;-81
2022/10/02 05:39:13;;;;;;;5.80;1.47;;;;;;;10.97;92.28;100317.75;1732462;81;21050;-84
2022/10/02 05:42:07;;;;;;;5.08;1.30;;;;;;;11.02;92.27;100319.27;1734724;81;21478;-86
2022/10/02 05:44:46;;;;;;;5.35;1.80;;;;;;;11.07;92.27;100317.33;1735415;81;21015;-80
2022/10/02 05:47:18;;;;;;;5.58;1.77;;;;;;;11.13;92.18;100321.47;1738768;81;21027;-77
2022/10/02 05:49:52;;;;;;;5.78;1.98;;;;;;;11.19;92.16;100317.28;1712146;81;21050;-84
2022/10/02 05:52:25;;;;;;;6.97;1.40;;;;;;;11.24;92.10;100321.03;1736141;81;21026;-81
2022/10/02 05:55:03;;;;;;;8.10;1.60;;;;;;;11.30;92.12;100321.63;1731439;81;21023;-84
2022/10/02 05:57:39;;;;;;;8.65;1.30;;;;;;;11.35;92.04;100321.44;1732801;81;20954;-76
2022/10/02 06:00:45;;;;;;;5.95;1.37;;;;;;;11.37;91.91;100317.84;1732437;81;21074;-81
2022/10/02 06:03:32;;;;;;;4.85;1.45;;;;;;;11.38;91.69;100322.16;1738967;81;21563;-86
2022/10/02 06:06:22;;;;;;;6.30;1.40;;;;;;;11.39;91.56;100317.80;1735162;81;21387;-82
2022/10/02 06:09:06;;;;;;;4.87;1.20;;;;;;;11.41;91.56;100317.71;1737665;81;21186;-78
2022/10/02 06:11:38;;;;;;;8.10;1.20;;;;;;;11.48;91.59;100313.46;1728108;81;21502;-85
2022/10/02 06:14:14;;;;;;;4.62;1.37;;;;;;;11.54;91.59;100317.59;1710756;81;20908;-81
2022/10/02 06:16:55;;;;;;;7.95;1.25;;;;;;;11.59;91.57;100314.33;1720324;81;21062;-81
2022/10/02 06:19:34;;;;;;;10.28;1.62;;;;;;;11.68;91.57;100310.45;1735870;81;21497;-85
2022/10/02 06:22:15;;;;;;;5.28;1.40;;;;;;;11.74;91.59;100318.90;1719121;81;21292;-83
2022/10/02 06:24:48;;;;;;;9.38;1.90;;;;;;;11.78;91.45;100318.33;1727991;81;21619;-73
2022/10/02 06:27:27;;;;;;;6.92;1.35;;;;;;;11.81;91.34;100320.81;1731155;82;21050;-83
2022/10/02 06:30:13;;;;;;;7.67;2.08;;;;;;;11.81;91.17;100317.73;1719220;81;21064;-85
2022/10/02 06:33:05;;;;;;;4.83;1.40;;;;;;;11.82;90.99;100332.55;1727185;81;21006;-78
2022/10/02 06:35:47;;;;;;;5.12;1.50;;;;;;;11.83;90.96;100332.97;1715277;81;21124;-86
2022/10/02 06:39:01;;;;;;;4.80;1.50;;;;;;;11.90;90.96;100335.35;1730034;81;20958;-74
2022/10/02 06:41:53;;;;;;;6.47;1.45;;;;;;;11.95;91.06;100334.23;1715888;81;21070;-79
2022/10/02 06:44:46;;;;;;;6.40;1.77;;;;;;;12.00;91.02;100342.77;1729407;81;21004;-80
2022/10/02 06:47:38;;;;;;;7.90;1.62;;;;;;;12.04;90.83;100339.53;1728958;81;21047;-78
2022/10/02 06:50:52;;;;;;;7.33;1.80;;;;;;;12.09;90.70;100342.81;1720464;83;21099;-77
2022/10/02 06:53:41;;;;;;;6.25;1.57;;;;;;;12.12;90.78;100336.11;1701118;81;21467;-77
2022/10/02 06:56:22;;;;;;;7.25;1.70;;;;;;;12.15;90.72;100339.06;1718135;81;21026;-75
2022/10/02 06:59:13;;;;;;;7.10;1.55;;;;;;;12.19;90.50;100343.25;1718222;83;21030;-78
2022/10/02 07:01:52;;;;;;;;;;;;;;;12.26;90.47;100343.38;1726757;81;21982;-77
2022/10/02 07:04:44;;;;;;;5.35;1.90;;;;;;;12.34;90.26;100339.95;1705421;83;21153;-80
2022/10/02 07:07:37;;;;;;;7.53;1.80;;;;;;;12.38;90.19;100344.59;1732905;82;21454;-79
2022/10/02 07:10:37;;;;;;;5.35;1.42;;;;;;;12.43;90.10;100342.61;1710756;82;21049;-79
2022/10/02 07:13:31;;;;;;;7.78;1.30;;;;;;;12.47;90.14;100342.41;1729732;81;21588;-81
2022/10/02 07:16:37;;;;;;;7.80;2.95;;;;;;;12.53;89.82;100344.38;1722428;81;21296;-84
2022/10/02 07:19:18;;;;;;;5.67;1.50;;;;;;;12.59;89.63;100342.77;1722074;81;21100;-82
2022/10/02 07:21:53;;;;;;;5.72;1.55;;;;;;;12.64;89.53;100344.27;1720692;81;21508;-78
2022/10/02 07:24:50;;;;;;;7.03;1.65;;;;;;;12.68;89.37;100345.81;1730733;82;21031;-76
2022/10/02 07:27:28;;;;;;;10.75;1.65;;;;;;;12.70;89.10;100342.66;1720443;82;21038;-76
2022/10/02 07:30:15;;;;;;;9.25;2.02;;;;;;;12.72;88.82;100357.06;1722218;81;21619;-75
2022/10/02 07:33:02;;;;;;;7.35;2.20;;;;;;;12.69;88.69;100345.34;1733603;82;21115;-77
2022/10/02 07:35:43;;;;;;;6.45;1.72;;;;;;;12.66;88.54;100348.97;1712692;82;21029;-79
2022/10/02 07:38:43;;;;;;;6.60;1.80;;;;;;;12.66;88.62;100343.70;1702279;81;21434;-79
2022/10/02 07:41:37;;;;;;;4.55;1.32;;;;;;;12.83;89.02;100352.59;1741802;81;21035;-77
2022/10/02 07:44:32;;;;;;;7.80;1.75;;;;;;;13.02;88.71;100348.63;1724139;81;21014;-75
2022/10/02 07:47:29;;;;;;;4.03;1.10;;;;;;;13.11;88.59;100353.00;1728110;81;21133;-80
2022/10/02 07:50:13;;;;;;;4.83;1.37;;;;;;;13.18;88.20;100355.70;1722199;81;20999;-76
2022/10/02 07:53:06;;;;;;;4.60;1.40;;;;;;;13.22;87.87;100351.17;1731446;81;21035;-79
2022/10/02 07:55:37;;;;;;;5.55;1.70;;;;;;;13.20;87.40;100346.91;1734051;81;21039;-73
2022/10/02 07:58:31;;;;;;;2.42;1.07;;;;;;;13.20;87.22;100353.48;1719983;81;21817;-79
2022/10/02 08:01:05;;;;;;;6.45;1.35;;;;;;;13.26;87.20;100354.52;1734017;81;21067;-77
2022/10/02 08:03:46;;;;;;;4.35;1.35;;;;;;;13.37;87.20;100345.16;1731322;81;21539;-78
2022/10/02 08:06:14;;;;;;;5.05;1.30;;;;;;;13.39;86.88;100351.69;1715920;81;21520;-78
2022/10/02 08:09:05;;;;;;;5.65;1.67;;;;;;;13.38;86.76;100346.89;1742061;81;21454;-79
2022/10/02 08:11:40;;;;;;;6.12;1.57;;;;;;;13.49;86.72;100345.48;1741952;81;21786;-78
2022/10/02 08:14:13;;;;;;;6.00;1.55;;;;;;;13.62;86.61;100347.89;1716940;82;21086;-75
2022/10/02 08:16:48;;;;;;;8.88;1.67;;;;;;;13.65;86.27;100335.88;1731555;80;21029;-79
2022/10/02 08:19:28;;;;;;;4.80;1.20;;;;;;;13.69;86.25;100333.50;1741217;81;21061;-79
2022/10/02 08:22:02;;;;;;;8.00;1.30;;;;;;;13.73;86.15;100338.98;1743087;81;21019;-80
2022/10/02 08:24:34;;;;;;;4.37;1.35;;;;;;;13.87;86.03;100341.38;1717178;82;21526;-78
2022/10/02 08:27:07;;;;;;;5.53;1.62;;;;;;;14.05;85.96;100349.19;1729944;80;21122;-77
2022/10/02 08:29:43;;;;;;;4.65;1.20;;;;;;;14.23;85.96;100345.19;1708186;80;21048;-78
2022/10/02 08:32:12;;;;;;;8.88;1.85;;;;;;;14.35;85.54;100345.84;1720571;80;21426;-77
2022/10/02 08:34:42;;;;;;;4.70;1.40;;;;;;;14.33;84.71;100350.80;1731519;80;21088;-76
2022/10/02 08:37:32;;;;;;;5.37;1.70;;;;;;;14.33;84.59;100341.58;1727724;80;21045;-85
2022/10/02 08:40:22;;;;;;;6.55;1.20;;;;;;;14.42;84.63;100339.78;1727575;80;26693;-77
2022/10/02 08:43:26;;;;;;;3.90;1.30;;;;;;;14.59;84.40;100345.50;1729851;82;22219;-79
2022/10/02 08:46:20;;;;;;;4.85;1.37;;;;;;;14.66;83.94;100338.48;1717716;82;21470;-81
2022/10/02 08:49:20;;;;;;;4.83;1.52;;;;;;;14.76;83.77;100336.66;1715342;82;21103;-75
2022/10/02 08:52:19;;;;;;;5.30;1.70;;;;;;;14.88;83.67;100332.88;1733024;81;21003;-77
2022/10/02 08:55:09;;;;;;;5.12;1.40;;;;;;;14.91;83.31;100329.22;1729949;81;22377;-80
2022/10/02 08:58:18;;;;;;;5.78;1.65;;;;;;;14.85;82.76;100328.22;1723744;82;21000;-78
2022/10/02 09:01:31;;;;;;;7.20;1.90;;;;;;;14.94;82.95;100321.97;1743193;82;21005;-84
2022/10/02 09:04:27;;;;;;;9.75;3.70;;;;;;;15.06;82.96;100318.25;1745775;82;21050;-89
2022/10/02 09:07:38;;;;;;;9.40;2.47;;;;;;;15.20;82.73;100308.22;1745949;82;21140;-82
2022/10/02 09:10:44;;;;;;;5.42;1.85;;;;;;;15.21;82.37;100298.88;1745817;82;21133;-80
2022/10/02 09:13:44;;;;;;;4.37;1.17;;;;;;;15.26;82.36;100309.18;1744806;82;21045;-83
2022/10/02 09:16:49;;;;;;;11.93;1.92;;;;;;;15.27;82.00;100285.78;1746002;82;21036;-81
2022/10/02 09:19:42;;;;;;;8.45;2.10;;;;;;;15.50;81.54;100290.58;1745918;82;21018;-84
2022/10/02 09:22:50;;;;;;;4.90;2.02;;;;;;;15.50;81.54;100290.58;1745953;82;21005;-83
2022/10/02 09:25:37;;;;;;;6.03;1.70;;;;;;;15.75;81.46;100294.44;1746071;82;21088;-83
2022/10/02 09:28:48;;;;;;;5.40;1.72;;;;;;;15.87;80.92;100293.68;1746198;82;21472;-85
2022/10/02 09:32:02;;;;;;;7.40;1.90;;;;;;;16.03;80.40;100285.20;1746030;82;20998;-84
2022/10/02 09:34:38;;;;;;;7.25;1.67;;;;;;;16.03;80.40;100285.20;1744791;82;21009;-76
2022/10/02 09:37:33;;;;;;;8.60;1.70;;;;;;;15.89;79.14;100310.30;1745074;82;21017;-77
2022/10/02 09:40:27;;;;;;;6.20;2.02;;;;;;;15.88;79.22;100305.09;1746350;82;21312;-88
2022/10/02 09:43:14;;;;;;;7.37;2.05;;;;;;;16.01;79.34;100307.38;1679649;82;21108;-79
2022/10/02 09:46:18;;;;;;;7.03;1.75;;;;;;;15.99;78.91;100302.65;1746332;82;21001;-88
2022/10/02 09:49:28;;;;;;;7.42;1.60;;;;;;;16.12;78.95;100290.38;1732130;82;20989;-84
2022/10/02 09:52:19;;;;;;;;;;;;;;;16.34;78.84;100286.41;1747248;82;20978;-91
2022/10/02 09:55:07;;;;;;;7.08;1.32;;;;;;;16.32;78.44;100291.78;1745975;82;21219;-82
2022/10/02 09:58:01;;;;;;;7.05;1.80;;;;;;;16.30;78.13;100291.05;1746263;82;21041;-86
2022/10/02 10:00:56;;;;;;;5.78;2.00;;;;;;;16.22;78.02;100286.71;1746044;82;21084;-90
2022/10/02 10:03:47;;;;;;;4.85;1.52;;;;;;;16.06;77.38;100285.00;1745910;82;21037;-84
2022/10/02 10:06:48;;;;;;;8.20;2.35;;;;;;;15.98;77.71;100292.55;1746000;82;21015;-79
2022/10/02 10:09:48;;;;;;;8.08;1.92;;;;;;;15.91;77.76;100283.80;1748810;82;21216;-74
2022/10/02 10:12:26;;;;;;;8.15;1.98;;;;;;;16.06;77.50;100286.33;1749349;82;21010;-86
2022/10/02 10:15:28;;;;;;;5.25;1.65;;;;;;;16.48;77.97;100274.48;1702628;82;21008;-79
2022/10/02 10:18:49;;;;;;;7.78;1.70;;;;;;;16.58;77.42;100284.02;1677380;84;22949;-72
2022/10/02 10:21:47;;;;;;;5.53;1.30;;;;;;;16.68;76.80;100270.55;1670777;84;21227;-71
2022/10/02 10:24:38;;;;;;;9.58;1.75;;;;;;;16.57;76.49;100273.03;1645004;86;21945;-72
2022/10/02 10:28:01;;;;;;;7.33;2.08;;;;;;;16.59;76.45;100254.80;1661062;86;21159;-76
2022/10/02 10:30:54;;;;;;;5.78;1.80;;;;;;;16.88;76.64;100266.66;1666835;86;21050;-71
2022/10/02 10:33:38;;;;;;;6.20;2.08;;;;;;;17.33;76.71;100268.05;1666622;86;21119;-71
2022/10/02 10:39:29;;;;;;;6.67;1.52;;;;;;;17.95;75.55;100261.22;1651778;86;21171;-71
2022/10/02 10:42:07;;;;;;;6.95;1.55;;;;;;;17.76;74.21;100262.48;1651277;86;21514;-72
2022/10/02 10:45:04;;;;;;;5.25;1.47;;;;;;;17.52;73.86;100253.56;1651360;86;21004;-71
2022/10/02 10:48:02;;;;;;;5.10;1.55;;;;;;;17.32;73.70;100264.16;1655754;86;21059;-73
2022/10/02 10:50:40;;;;;;;6.42;1.87;;;;;;;17.16;73.25;100259.91;1668891;84;21060;-71
2022/10/02 10:53:21;;;;;;;7.20;1.32;;;;;;;17.20;73.68;100253.92;1708041;81;21055;-70
2022/10/02 10:56:24;;;;;;;5.10;1.85;;;;;;;17.19;73.52;100241.64;1727935;82;21017;-72
2022/10/02 10:59:47;;;;;;;6.87;1.87;;;;;;;17.60;73.97;100234.02;1689793;84;21043;-71
2022/10/02 11:03:01;;;;;;;6.58;1.92;;;;;;;17.73;73.26;100236.16;1689718;84;21055;-70
2022/10/02 11:05:50;;;;;;;5.60;1.82;;;;;;;17.73;72.30;100223.39;1685763;84;21120;-72
2022/10/02 11:08:33;;;;;;;;;;;;;;;17.41;71.48;100229.61;1689299;84;21047;-74
2022/10/02 11:11:17;;;;;;;5.40;1.65;;;;;;;17.06;70.90;100234.98;1686592;83;20151;-72
2022/10/02 11:14:31;;;;;;;4.78;1.42;;;;;;;16.83;71.33;100233.02;1683350;84;21497;-73
2022/10/02 11:17:34;;;;;;;8.75;1.92;;;;;;;16.63;71.46;100238.27;1680840;84;21059;-72
2022/10/02 11:20:25;;;;;;;8.35;1.37;;;;;;;16.97;71.83;100244.88;1691870;83;21278;-73
2022/10/02 11:23:10;;;;;;;5.53;1.90;;;;;;;17.54;72.02;100235.73;1709654;82;21263;-73
2022/10/02 11:26:11;;;;;;;6.05;1.92;;;;;;;18.19;72.31;100235.62;1693779;83;21052;-83
2022/10/02 11:29:24;;;;;;;5.05;1.90;;;;;;;18.79;72.21;100231.77;1708883;83;21015;-73
2022/10/02 11:32:27;;;;;;;6.15;1.90;;;;;;;19.27;70.58;100233.06;1729748;82;21021;-75
2022/10/02 11:35:22;;;;;;;4.12;1.65;;;;;;;19.57;69.54;100224.55;1726966;82;21024;-75
2022/10/02 11:38:09;;;;;;;4.83;1.55;;;;;;;19.71;69.16;100228.34;1722192;82;21115;-74
2022/10/02 11:41:21;;;;;;;5.83;1.40;;;;;;;19.75;68.17;100241.74;1699642;80;21004;-72
2022/10/02 11:44:29;;;;;;;6.78;1.82;;;;;;;19.82;67.89;100233.66;1730762;80;21071;-74
2022/10/02 11:47:20;;;;;;;7.67;1.50;;;;;;;20.00;67.24;100230.52;1726031;81;20991;-84
2022/10/02 11:50:35;;;;;;;7.25;1.50;;;;;;;20.40;67.55;100228.18;1719254;81;21018;-76
2022/10/02 11:53:25;;;;;;;5.05;1.72;;;;;;;20.80;67.20;100222.28;1730953;81;21099;-72
2022/10/02 11:56:15;;;;;;;7.35;1.42;;;;;;;20.86;66.60;100219.59;1725183;81;20976;-75
2022/10/02 11:58:57;;;;;;;5.12;1.30;;;;;;;20.43;64.67;100227.09;1727167;81;21433;-74
2022/10/02 12:01:44;;;;;;;8.13;1.50;;;;;;;20.00;64.42;100211.40;1727255;81;21127;-76
2022/10/02 12:04:56;;;;;;;3.92;1.27;;;;;;;19.78;64.82;100224.70;1727107;81;21051;-76
2022/10/02 12:07:54;;;;;;;4.90;1.55;;;;;;;19.70;64.89;100226.63;1724639;81;21464;-74
2022/10/02 12:10:38;;;;;;;5.22;1.72;;;;;;;19.80;64.32;100218.30;1672691;83;21044;-74
2022/10/02 12:13:32;;;;;;;3.17;1.32;;;;;;;19.98;63.37;100220.47;1683486;83;21021;-73
2022/10/02 12:16:07;;;;;;;4.62;1.22;;;;;;;20.03;63.41;100202.33;1711110;82;21431;-75
2022/10/02 12:18:58;;;;;;;8.10;1.70;;;;;;;20.22;62.79;100209.20;1719284;82;21068;-79
2022/10/02 12:28:27;;;;;;;7.85;2.10;;;;;;;20.26;60.55;100196.52;1682925;84;21518;-71
2022/10/02 12:31:00;;;;;;;11.85;2.12;;;;;;;19.80;61.24;100211.66;1723941;82;21041;-74
2022/10/02 12:33:53;;;;;;;5.45;1.50;;;;;;;19.24;60.27;100195.61;1711172;82;21492;-76
2022/10/02 12:36:34;;;;;;;4.80;1.47;;;;;;;18.82;61.26;100207.19;1649049;85;22025;-74
2022/10/02 12:39:30;;;;;;;3.77;1.12;;;;;;;18.54;61.86;100203.50;1676502;84;21041;-76
2022/10/02 12:42:12;;;;;;;6.22;1.42;;;;;;;18.41;62.72;100191.62;1677259;84;21525;-72
2022/10/02 12:44:57;;;;;;;3.10;1.17;;;;;;;18.39;63.38;100190.88;1679821;84;21025;-73
2022/10/02 12:47:50;;;;;;;5.97;1.35;;;;;;;18.34;63.00;100183.73;1676802;84;21053;-76
2022/10/02 12:50:43;;;;;;;5.80;1.40;;;;;;;18.20;63.39;100194.86;1688009;84;22033;-73
2022/10/02 12:53:24;;;;;;;4.58;1.72;;;;;;;18.14;63.67;100193.14;1705221;83;21030;-75
2022/10/02 12:56:24;;;;;;;5.05;1.17;;;;;;;18.05;63.35;100201.28;1645040;83;21016;-74
2022/10/02 12:59:25;;;;;;;3.45;1.37;;;;;;;17.93;63.70;100197.70;1665376;85;21116;-79
2022/10/02 13:02:21;;;;;;;6.53;2.05;;;;;;;18.10;64.07;100199.15;1677682;85;21564;-88
2022/10/02 13:04:59;;;;;;;6.15;1.82;;;;;;;18.30;64.57;100189.75;1680492;85;21164;-81